Time;durP1;ratioP1;P1;durP2;ratioP2;P2;SDS_P1;SDS_P2;PMS_P1;PMS_P2;Temp;Humidity;BMP_temperature;BMP_pressure;BME280_temperature;BME280_humidity;BME280_pressure;Samples;Min_cycle;Max_cycle;Signal;HPM_P1;HPM_P2
2022/11/19 00:01:25;;;;;;;6.43;5.70;;;4.40;60.30;;;6.99;46.73;101327.34;5073538;28;20215;-58
2022/11/19 00:03:53;;;;;;;7.67;5.23;;;4.40;60.00;;;6.98;46.76;101333.53;5061132;28;20194;-58
2022/11/19 00:06:24;;;;;;;6.80;5.33;;;4.40;60.30;;;6.98;46.78;101325.69;5075910;28;20197;-58
2022/11/19 00:08:53;;;;;;;6.17;5.53;;;4.40;60.20;;;7.00;46.23;101334.22;5075864;28;20245;-58
2022/11/19 00:14:11;;;;;;;8.67;5.83;;;4.40;59.90;;;6.95;46.54;101341.66;5067683;28;20197;-60
2022/11/19 00:16:38;;;;;;;6.43;5.77;;;4.40;59.90;;;6.97;46.48;101343.16;5057418;28;20217;-57
2022/11/19 00:19:06;;;;;;;6.73;5.70;;;4.40;60.00;;;6.96;46.47;101340.69;5060460;28;20262;-58
2022/11/19 00:21:34;;;;;;;5.80;5.17;;;4.40;59.80;;;6.94;46.46;101334.78;5069479;28;20307;-58
2022/11/19 00:24:01;;;;;;;6.53;5.50;;;4.40;59.60;;;6.90;46.29;101343.84;5055282;28;20194;-59
2022/11/19 00:26:28;;;;;;;7.13;5.90;;;4.30;59.90;;;6.89;46.92;101345.66;5054669;28;20210;-58
2022/11/19 00:28:55;;;;;;;6.10;5.37;;;4.40;60.00;;;6.91;46.15;101350.75;5055032;28;20224;-59
2022/11/19 00:31:22;;;;;;;5.60;5.10;;;4.40;60.60;;;6.92;46.66;101344.56;5054070;28;20292;-57
2022/11/19 00:33:49;;;;;;;5.90;5.30;;;4.30;59.60;;;6.89;46.47;101350.06;5055129;28;20255;-59
2022/11/19 00:36:17;;;;;;;7.80;6.20;;;4.30;59.60;;;6.82;46.08;101353.19;5055386;28;20246;-60
2022/11/19 00:38:46;;;;;;;6.87;5.53;;;4.20;59.60;;;6.78;46.47;101348.38;5054958;28;20194;-59
2022/11/19 00:41:13;;;;;;;6.47;5.00;;;4.20;59.80;;;6.75;46.58;101357.31;5054051;28;20241;-57
2022/11/19 00:43:46;;;;;;;6.60;5.93;;;4.20;59.90;;;6.75;46.36;101353.91;5073940;28;20273;-58
2022/11/19 00:46:16;;;;;;;5.73;5.10;;;4.20;60.00;;;6.76;46.66;101358.97;5075281;28;20178;-58
2022/11/19 00:48:44;;;;;;;5.33;4.83;;;4.20;60.10;;;6.78;46.52;101364.06;5075007;28;20223;-58
2022/11/19 00:51:12;;;;;;;6.93;5.73;;;4.20;59.80;;;6.77;46.46;101358.00;5070487;28;20570;-57
2022/11/19 00:53:39;;;;;;;6.47;5.53;;;4.20;59.90;;;6.75;46.59;101365.16;5064097;28;20195;-57
2022/11/19 00:56:10;;;;;;;7.43;6.20;;;4.20;59.90;;;6.74;46.34;101362.69;5074900;28;20221;-57
2022/11/19 00:58:38;;;;;;;6.87;5.70;;;4.20;59.70;;;6.73;46.72;101372.31;5094717;28;20185;-58
2022/11/19 01:01:07;;;;;;;5.97;5.00;;;4.20;59.70;;;6.72;45.97;101375.91;5086814;28;20566;-59
2022/11/19 01:03:35;;;;;;;5.90;5.13;;;4.20;59.50;;;6.67;46.75;101383.34;5054609;28;20195;-57
2022/11/19 01:06:04;;;;;;;6.20;5.43;;;4.10;59.40;;;6.62;46.63;101372.44;5054532;28;20626;-55
2022/11/19 01:08:32;;;;;;;6.93;5.47;;;4.10;59.80;;;6.60;46.78;101379.59;5054411;28;20186;-59
2022/11/19 01:11:05;;;;;;;7.13;5.47;;;4.00;59.70;;;6.58;45.78;101376.28;5053541;28;20199;-59
2022/11/19 01:13:34;;;;;;;6.37;5.67;;;4.10;59.60;;;6.52;46.65;101381.19;5086637;28;20193;-59
2022/11/19 01:16:05;;;;;;;7.20;5.23;;;4.00;59.70;;;6.49;47.22;101387.53;5082209;28;20214;-61
2022/11/19 01:18:35;;;;;;;6.40;5.37;;;4.00;60.00;;;6.50;47.25;101385.75;5089361;28;20177;-59
2022/11/19 01:21:04;;;;;;;5.77;5.03;;;3.90;60.00;;;6.52;46.94;101374.19;5089390;28;20224;-59
2022/11/19 01:23:32;;;;;;;6.20;5.60;;;4.00;60.00;;;6.56;46.88;101385.22;5074743;28;20213;-58
2022/11/19 01:25:59;;;;;;;6.03;5.20;;;4.00;59.80;;;6.57;46.53;101382.47;5080950;28;20192;-60
2022/11/19 01:28:27;;;;;;;6.27;5.07;;;4.00;59.70;;;6.58;46.63;101391.97;5070471;28;20179;-57
2022/11/19 01:30:56;;;;;;;5.60;5.10;;;4.00;59.80;;;6.61;46.59;101393.47;5070854;28;20253;-60
2022/11/19 01:33:23;;;;;;;6.57;5.10;;;4.00;59.70;;;6.65;46.17;101387.88;5073442;28;20257;-59
2022/11/19 01:35:56;;;;;;;7.17;5.27;;;4.10;59.70;;;6.69;46.20;101391.88;5067056;28;20290;-60
2022/11/19 01:38:23;;;;;;;6.53;5.80;;;4.10;59.30;;;6.72;45.51;101386.38;5069117;28;20187;-59
2022/11/19 01:40:50;;;;;;;5.57;4.97;;;4.20;59.10;;;6.76;46.09;101392.16;5068691;28;20190;-62
2022/11/19 01:43:17;;;;;;;6.27;5.03;;;4.20;59.20;;;6.78;45.96;101385.81;5068006;28;20281;-60
2022/11/19 01:45:47;;;;;;;6.17;5.57;;;4.30;59.00;;;6.83;45.55;101394.09;5068574;28;20255;-61
2022/11/19 01:48:23;;;;;;;7.70;5.47;;;4.30;58.70;;;6.85;45.13;101395.78;5067084;28;20636;-59
2022/11/19 01:50:56;;;;;;;5.50;5.00;;;4.30;58.30;;;6.83;45.22;101388.88;5084600;28;20257;-59
2022/11/19 01:53:28;;;;;;;6.13;5.43;;;4.30;58.30;;;6.82;45.72;101389.81;5069395;28;20199;-60
2022/11/19 01:56:02;;;;;;;6.27;5.47;;;4.30;58.20;;;6.77;45.38;101388.59;5062680;28;20198;-59
2022/11/19 01:58:35;;;;;;;5.53;5.03;;;4.20;57.90;;;6.71;45.41;101395.16;5066012;28;20249;-59
2022/11/19 02:01:03;;;;;;;6.47;5.43;;;4.20;58.20;;;6.69;45.62;101402.31;5067301;28;20249;-58
2022/11/19 02:03:33;;;;;;;6.33;5.20;;;4.20;58.50;;;6.68;45.73;101398.03;5068542;28;20194;-60
2022/11/19 02:06:02;;;;;;;5.70;5.10;;;4.10;58.20;;;6.66;45.57;101407.81;5068754;28;20178;-59
2022/11/19 02:08:39;;;;;;;5.40;4.87;;;4.10;58.20;;;6.61;45.29;101410.00;5068069;28;20191;-59
2022/11/19 02:11:48;;;;;;;6.40;5.20;;;4.00;58.30;;;6.54;46.04;101419.34;5060195;28;20209;-59
2022/11/19 02:14:52;;;;;;;6.20;5.57;;;4.00;58.70;;;6.52;45.86;101415.19;5063531;28;20189;-61
2022/11/19 02:17:41;;;;;;;6.57;5.27;;;4.00;58.60;;;6.50;45.19;101417.13;5081524;28;20274;-60
2022/11/19 02:20:50;;;;;;;7.30;5.27;;;4.00;58.60;;;6.50;45.04;101420.56;5084729;28;20268;-59
2022/11/19 02:24:00;;;;;;;6.43;5.20;;;4.00;58.50;;;6.46;45.40;101413.13;5084393;28;20297;-58
2022/11/19 02:27:08;;;;;;;5.73;5.13;;;4.00;58.60;;;6.44;46.16;101423.69;5082457;28;20286;-60
2022/11/19 02:29:59;;;;;;;7.17;5.47;;;4.00;58.50;;;6.40;45.74;101417.06;5082480;28;20260;-59
2022/11/19 02:32:33;;;;;;;7.30;5.50;;;3.90;58.60;;;6.42;45.50;101425.59;5084417;28;20218;-59
2022/11/19 02:35:14;;;;;;;5.40;4.90;;;3.90;58.60;;;6.43;45.33;101427.28;5085521;28;20187;-59
2022/11/19 02:37:51;;;;;;;6.67;5.10;;;3.90;58.60;;;6.44;45.12;101426.28;5087954;28;20216;-58
2022/11/19 02:40:27;;;;;;;6.33;5.73;;;3.90;58.30;;;6.44;46.24;101436.75;5090665;28;20181;-59
2022/11/19 02:43:06;;;;;;;6.07;5.27;;;3.90;58.70;;;6.44;45.00;101434.13;5090680;28;20214;-60
2022/11/19 02:45:41;;;;;;;7.33;5.47;;;3.90;58.50;;;6.43;45.74;101432.50;5091175;28;20197;-59
2022/11/19 02:48:15;;;;;;;6.20;4.80;;;3.90;58.80;;;6.45;46.27;101430.59;5090480;28;20182;-61
2022/11/19 02:50:47;;;;;;;6.53;5.50;;;3.90;58.70;;;6.47;45.66;101433.88;5090656;28;20186;-59
2022/11/19 02:53:14;;;;;;;7.27;5.50;;;3.90;58.50;;;6.47;46.17;101436.50;5090591;28;20247;-59
2022/11/19 02:56:09;;;;;;;6.17;5.00;;;3.90;58.60;;;6.48;45.53;101429.50;5092801;28;20667;-59
2022/11/19 03:04:28;;;;;;;5.97;5.30;;;3.90;58.40;;;6.43;45.46;101432.50;5082982;28;20190;-58
2022/11/19 03:07:01;;;;;;;6.33;5.40;;;4.00;58.20;;;6.37;45.13;101446.06;5082914;28;20240;-59
2022/11/19 03:09:31;;;;;;;7.27;5.80;;;3.90;58.10;;;6.30;45.81;101442.31;5082442;28;20185;-58
2022/11/19 03:12:11;;;;;;;6.20;5.60;;;3.80;58.00;;;6.21;46.21;101448.34;5083441;28;20345;-59
2022/11/19 03:17:59;;;;;;;7.27;5.70;;;3.70;58.90;;;6.12;46.02;101441.28;5085671;28;20275;-59
2022/11/19 03:20:34;;;;;;;5.77;5.17;;;3.70;59.50;;;6.13;45.64;101438.53;5083490;28;20194;-59
2022/11/19 03:23:10;;;;;;;7.93;5.47;;;3.60;58.90;;;6.12;46.34;101444.72;5066041;28;20225;-60
2022/11/19 03:25:45;;;;;;;6.10;5.50;;;3.60;58.80;;;6.12;46.73;101443.88;5060829;28;20197;-59
2022/11/19 03:28:20;;;;;;;6.93;5.70;;;3.60;59.10;;;6.15;45.80;101443.63;5060402;28;20216;-59
2022/11/19 03:30:51;;;;;;;5.90;5.30;;;3.60;59.10;;;6.18;45.39;101453.81;5059897;28;20209;-59
2022/11/19 03:33:25;;;;;;;6.93;5.53;;;3.70;58.60;;;6.15;45.44;101448.88;5077623;28;20202;-60
2022/11/19 03:35:58;;;;;;;6.50;5.63;;;3.60;58.70;;;6.14;46.04;101452.41;5081906;28;20224;-59
2022/11/19 03:38:30;;;;;;;6.33;5.20;;;3.60;59.00;;;6.17;46.54;101456.56;5081516;28;20174;-59
2022/11/19 03:40:58;;;;;;;6.20;5.60;;;3.60;59.00;;;6.19;45.75;101460.72;5080870;28;20182;-59
2022/11/19 03:43:30;;;;;;;6.80;5.37;;;3.70;58.80;;;6.17;45.61;101457.41;5079164;28;20198;-58
2022/11/19 03:46:00;;;;;;;5.77;5.17;;;3.60;58.30;;;6.14;46.52;101455.88;5082309;28;20187;-58
2022/11/19 03:48:30;;;;;;;5.87;5.23;;;3.60;58.60;;;6.12;46.00;101459.56;5083491;28;20204;-56
2022/11/19 03:51:07;;;;;;;6.33;5.73;;;3.60;58.80;;;6.10;46.22;101464.09;5081146;28;20685;-58
2022/11/19 03:53:34;;;;;;;6.03;5.43;;;3.60;59.00;;;6.09;46.17;101465.03;5065222;28;20199;-60
2022/11/19 03:56:07;;;;;;;6.43;5.67;;;3.60;58.70;;;6.05;46.52;101463.66;5055610;28;20249;-57
2022/11/19 03:58:39;;;;;;;5.67;4.80;;;3.50;58.90;;;6.06;46.28;101473.16;5056016;28;20229;-59
2022/11/19 04:01:07;;;;;;;6.40;5.50;;;3.50;59.10;;;6.06;46.60;101478.38;5054970;28;20275;-59
2022/11/19 04:03:36;;;;;;;7.50;5.90;;;3.50;58.80;;;6.08;46.71;101484.31;5061528;28;20197;-55
2022/11/19 04:06:04;;;;;;;7.40;5.80;;;3.50;59.10;;;6.15;45.80;101482.84;5075723;28;20270;-55
2022/11/19 04:08:31;;;;;;;6.37;5.37;;;3.60;59.00;;;6.20;46.01;101485.91;5066618;28;20239;-58
2022/11/19 04:10:58;;;;;;;7.27;5.43;;;3.60;58.70;;;6.24;45.89;101482.06;5054692;28;20682;-57
2022/11/19 04:13:24;;;;;;;6.20;5.60;;;3.70;58.30;;;6.18;44.95;101484.38;5055464;28;20190;-58
2022/11/19 04:15:51;;;;;;;6.47;5.30;;;3.60;58.10;;;6.14;45.26;101483.78;5088435;28;20600;-59
2022/11/19 04:18:20;;;;;;;5.40;4.90;;;3.60;58.40;;;6.11;46.02;101481.41;5092560;28;20220;-58
2022/11/19 04:20:48;;;;;;;6.07;4.90;;;3.60;58.30;;;6.09;45.40;101481.56;5072690;28;20205;-59
2022/11/19 04:23:15;;;;;;;6.60;5.90;;;3.60;58.10;;;6.08;45.69;101477.28;5075715;28;20198;-57
2022/11/19 04:25:46;;;;;;;6.53;5.80;;;3.50;58.20;;;6.04;46.13;101475.03;5075210;28;20189;-57
2022/11/19 04:28:13;;;;;;;6.43;5.33;;;3.50;58.40;;;6.01;45.27;101483.97;5074440;28;20256;-59
2022/11/19 04:30:39;;;;;;;6.83;5.37;;;3.50;58.50;;;5.98;46.57;101486.00;5056704;28;20271;-59
2022/11/19 04:33:06;;;;;;;6.93;5.97;;;3.40;58.70;;;5.98;45.66;101483.41;5074196;28;20556;-56
2022/11/19 04:35:33;;;;;;;5.73;5.13;;;3.40;58.90;;;6.01;45.44;101488.38;5074683;28;20258;-59
2022/11/19 04:38:02;;;;;;;6.33;5.70;;;3.40;58.80;;;6.02;45.42;101492.63;5074714;28;20598;-59
2022/11/19 04:40:29;;;;;;;7.00;5.63;;;3.50;58.60;;;5.98;45.00;101480.78;5055123;28;20201;-59
2022/11/19 04:42:56;;;;;;;6.47;5.57;;;3.40;58.40;;;5.95;46.25;101481.03;5054611;28;20263;-59
2022/11/19 04:45:23;;;;;;;8.43;6.03;;;3.40;58.70;;;5.92;45.12;101478.69;5054568;28;20194;-57
2022/11/19 04:47:50;;;;;;;6.07;5.43;;;3.40;58.40;;;5.90;45.67;101484.03;5064640;28;20192;-58
2022/11/19 04:50:16;;;;;;;6.00;5.40;;;3.40;58.70;;;5.93;45.54;101483.78;5057258;28;20525;-58
2022/11/19 04:52:43;;;;;;;6.50;5.67;;;3.40;58.90;;;5.98;44.97;101473.78;5054528;28;20696;-58
2022/11/19 04:55:12;;;;;;;6.63;5.77;;;3.40;58.60;;;6.01;46.13;101473.50;5054512;28;20620;-59
2022/11/19 04:57:39;;;;;;;7.17;5.57;;;3.40;58.20;;;6.02;45.54;101474.34;5080629;28;20217;-59
2022/11/19 05:00:08;;;;;;;6.40;5.33;;;3.40;58.30;;;6.00;46.08;101481.47;5063344;28;20663;-57
2022/11/19 05:02:35;;;;;;;7.27;5.40;;;3.50;58.30;;;5.99;45.14;101475.41;5053693;28;20212;-59
2022/11/19 05:05:03;;;;;;;6.63;5.33;;;3.40;58.30;;;5.99;46.07;101482.47;5054320;28;20204;-59
2022/11/19 05:07:30;;;;;;;6.20;5.63;;;3.40;58.40;;;6.00;45.81;101486.72;5054290;28;20190;-59
2022/11/19 05:09:57;;;;;;;6.13;5.53;;;3.40;58.20;;;6.00;45.56;101481.47;5053945;28;20198;-59
2022/11/19 05:12:25;;;;;;;6.47;5.23;;;3.40;58.20;;;5.97;45.81;101498.25;5052893;28;20595;-59
2022/11/19 05:14:52;;;;;;;6.40;5.67;;;3.40;58.30;;;5.95;45.56;101488.88;5070544;28;20214;-58
2022/11/19 05:17:19;;;;;;;6.43;5.53;;;3.40;58.30;;;5.90;45.18;101485.81;5093912;28;20606;-59
2022/11/19 05:19:46;;;;;;;6.57;5.60;;;3.30;58.30;;;5.89;46.27;101499.84;5079506;28;20681;-59
2022/11/19 05:22:13;;;;;;;6.50;5.77;;;3.30;58.60;;;5.87;46.48;101492.09;5073657;28;20702;-59
2022/11/19 05:24:40;;;;;;;7.23;5.57;;;3.30;58.50;;;5.88;45.80;101492.94;5073162;28;21052;-59
2022/11/19 05:27:07;;;;;;;6.23;5.63;;;3.30;58.60;;;5.87;45.93;101497.31;5073679;28;20194;-59
2022/11/19 05:29:36;;;;;;;6.13;5.30;;;3.30;58.50;;;5.87;45.07;101496.53;5063106;28;20327;-58
2022/11/19 05:32:03;;;;;;;6.30;5.70;;;3.30;58.50;;;5.84;46.60;101495.00;5053325;28;20686;-58
2022/11/19 05:34:30;;;;;;;8.90;5.87;;;3.30;58.40;;;5.82;46.51;101503.88;5059685;28;20195;-57
2022/11/19 05:36:57;;;;;;;7.27;5.87;;;3.20;58.30;;;5.79;45.21;101498.88;5073675;28;20209;-59
2022/11/19 05:39:24;;;;;;;6.37;5.53;;;3.20;58.30;;;5.74;46.14;101501.03;5064815;28;20199;-55
2022/11/19 05:41:52;;;;;;;6.73;5.90;;;3.20;58.40;;;5.69;45.60;101508.41;5053027;28;20229;-60
2022/11/19 05:44:19;;;;;;;8.77;6.33;;;3.10;58.60;;;5.65;45.95;101507.00;5053437;28;20275;-59
2022/11/19 05:46:47;;;;;;;7.73;6.20;;;3.10;59.00;;;5.67;46.24;101510.31;5055076;28;20183;-59
2022/11/19 05:49:14;;;;;;;7.03;6.30;;;3.00;59.00;;;5.71;46.56;101511.72;5066170;28;20256;-58
2022/11/19 05:51:41;;;;;;;7.07;5.60;;;3.10;59.20;;;5.76;46.23;101514.78;5053679;28;20277;-59
2022/11/19 05:54:08;;;;;;;6.17;5.57;;;3.10;58.70;;;5.76;45.74;101502.56;5053704;28;20232;-58
2022/11/19 05:56:35;;;;;;;6.70;6.00;;;3.10;58.70;;;5.77;45.71;101516.47;5062156;28;20259;-57
2022/11/19 05:59:02;;;;;;;6.70;6.00;;;3.20;58.80;;;5.78;45.13;101510.28;5082882;28;20240;-57
2022/11/19 06:01:29;;;;;;;6.30;5.63;;;3.20;58.20;;;5.73;45.41;101510.66;5061306;28;20675;-55
2022/11/19 06:03:58;;;;;;;7.40;5.20;;;3.10;58.40;;;5.70;45.60;101510.09;5073575;28;20193;-57
2022/11/19 06:06:25;;;;;;;6.07;5.17;;;3.10;58.60;;;5.67;45.84;101510.31;5061185;28;20208;-59
2022/11/19 06:08:52;;;;;;;8.87;6.10;;;3.10;58.70;;;5.66;45.34;101508.69;5053345;28;20185;-57
2022/11/19 06:14:05;;;;;;;7.33;5.70;;;3.00;58.70;;;5.57;46.51;101509.41;5063791;28;20194;-59
2022/11/19 06:16:32;;;;;;;8.07;6.47;;;3.00;59.00;;;5.54;46.05;101510.47;5073032;28;20203;-58
2022/11/19 06:19:00;;;;;;;7.50;5.50;;;3.00;59.00;;;5.53;45.99;101513.22;5068521;28;20218;-57
2022/11/19 06:21:27;;;;;;;6.90;5.70;;;2.90;58.80;;;5.47;46.07;101515.38;5062875;28;20217;-58
2022/11/19 06:23:54;;;;;;;7.47;5.70;;;2.80;58.70;;;5.44;45.92;101518.22;5077724;28;20199;-58
2022/11/19 06:26:23;;;;;;;6.77;5.83;;;2.80;59.10;;;5.41;47.18;101517.63;5066520;28;20245;-58
2022/11/19 06:28:50;;;;;;;5.87;5.17;;;2.80;59.50;;;5.41;46.41;101521.09;5057419;28;20679;-58
2022/11/19 06:31:18;;;;;;;7.27;6.43;;;2.80;59.40;;;5.41;46.35;101521.09;5067391;28;20271;-58
2022/11/19 06:33:45;;;;;;;8.47;6.47;;;2.80;59.70;;;5.43;46.61;101529.63;5077294;28;20211;-59
2022/11/19 06:36:14;;;;;;;8.30;6.90;;;2.80;59.80;;;5.45;46.59;101522.50;5066322;28;20203;-60
2022/11/19 06:38:41;;;;;;;7.23;6.47;;;2.80;59.50;;;5.47;46.20;101531.03;5057195;28;20269;-58
2022/11/19 06:41:08;;;;;;;7.23;6.30;;;2.90;59.20;;;5.47;46.06;101523.19;5056751;28;20264;-59
2022/11/19 06:43:34;;;;;;;6.97;6.00;;;2.80;58.80;;;5.43;46.66;101534.00;5057032;28;20198;-61
2022/11/19 06:46:02;;;;;;;6.57;5.47;;;2.80;59.40;;;5.40;46.22;101526.41;5056811;28;20210;-59
2022/11/19 06:48:29;;;;;;;8.53;6.90;;;2.70;59.50;;;5.37;46.38;101526.66;5072584;28;20550;-61
2022/11/19 06:50:56;;;;;;;7.30;6.50;;;2.70;59.70;;;5.37;47.04;101524.88;5076524;28;20224;-60
2022/11/19 06:53:24;;;;;;;9.07;6.33;;;2.70;60.00;;;5.41;47.39;101536.75;5076683;28;20195;-58
2022/11/19 06:55:55;;;;;;;8.13;6.27;;;2.80;60.30;;;5.47;46.59;101536.25;5070411;28;20217;-59
2022/11/19 06:58:22;;;;;;;7.40;5.87;;;2.90;60.10;;;5.51;47.29;101539.44;5095174;28;20198;-58
2022/11/19 07:00:49;;;;;;;6.77;5.83;;;2.90;59.60;;;5.54;47.36;101541.78;5096350;28;20186;-58
2022/11/19 07:03:17;;;;;;;6.67;5.90;;;2.90;59.70;;;5.58;47.12;101542.41;5096775;28;20201;-60
2022/11/19 07:05:45;;;;;;;7.30;5.97;;;2.90;59.60;;;5.62;47.15;101538.56;5087571;28;20675;-57
2022/11/19 07:08:13;;;;;;;7.10;6.13;;;3.00;60.00;;;5.70;45.85;101544.88;5056161;28;20192;-57
2022/11/19 07:10:41;;;;;;;6.93;5.60;;;3.00;59.70;;;5.71;45.89;101549.13;5056394;28;20244;-58
2022/11/19 07:13:08;;;;;;;8.57;6.43;;;3.00;59.10;;;5.71;46.24;101553.50;5055815;28;20243;-60
2022/11/19 07:15:36;;;;;;;7.10;6.23;;;3.00;59.40;;;5.72;46.13;101555.19;5078451;28;20271;-59
2022/11/19 07:18:04;;;;;;;9.10;6.80;;;3.10;59.30;;;5.75;45.53;101554.94;5055639;28;20224;-59
2022/11/19 07:20:31;;;;;;;7.90;6.93;;;3.10;59.00;;;5.73;45.74;101551.63;5072373;28;20200;-58
2022/11/19 07:22:58;;;;;;;6.90;5.73;;;3.10;59.20;;;5.71;46.36;101550.88;5080338;28;20736;-59
2022/11/19 07:25:25;;;;;;;7.10;6.00;;;3.00;59.20;;;5.70;46.71;101557.09;5078664;28;20227;-60
2022/11/19 07:27:54;;;;;;;6.50;5.90;;;3.00;59.10;;;5.68;45.56;101553.78;5070035;28;20201;-59
2022/11/19 07:30:21;;;;;;;8.93;7.17;;;3.00;59.20;;;5.67;47.02;101557.31;5075602;28;20212;-59
2022/11/19 07:32:48;;;;;;;8.33;6.10;;;3.00;59.20;;;5.65;46.13;101557.47;5076107;28;20221;-58
2022/11/19 07:35:15;;;;;;;7.90;6.40;;;3.00;59.50;;;5.65;46.44;101554.00;5075661;28;20736;-60
2022/11/19 07:37:42;;;;;;;8.53;6.77;;;3.00;59.60;;;5.62;45.92;101554.25;5055680;28;20611;-59
2022/11/19 07:40:13;;;;;;;7.57;6.73;;;2.90;59.40;;;5.60;46.44;101556.16;5055868;28;20201;-58
2022/11/19 07:42:50;;;;;;;8.63;6.43;;;2.90;59.80;;;5.64;47.05;101561.00;5054078;28;20218;-58
2022/11/19 07:45:21;;;;;;;7.63;6.77;;;2.90;60.00;;;5.70;46.81;101551.88;5055911;28;20198;-57
2022/11/19 07:47:48;;;;;;;11.27;8.80;;;3.00;59.60;;;5.72;45.85;101555.19;5066311;28;20194;-57
2022/11/19 07:50:16;;;;;;;11.03;7.37;;;3.00;59.40;;;5.70;46.23;101551.88;5075237;28;20688;-59
2022/11/19 07:52:44;;;;;;;9.93;7.07;;;3.00;59.60;;;5.72;46.68;101548.19;5075569;28;20225;-59
2022/11/19 07:55:11;;;;;;;7.77;6.23;;;3.00;59.70;;;5.73;46.57;101555.03;5075565;28;20204;-58
2022/11/19 07:57:38;;;;;;;19.53;12.70;;;3.00;59.60;;;5.73;46.98;101556.84;5088765;28;20243;-60
2022/11/19 08:00:06;;;;;;;11.63;8.83;;;3.00;59.90;;;5.80;46.61;101568.47;5095282;28;20197;-57
2022/11/19 08:02:35;;;;;;;8.63;7.37;;;3.00;60.00;;;5.87;46.41;101559.22;5082933;28;20272;-59
2022/11/19 08:05:03;;;;;;;9.43;8.13;;;3.10;61.00;;;5.96;45.97;101563.69;5055018;28;20191;-59
2022/11/19 08:07:29;;;;;;;12.30;8.27;;;3.10;59.80;;;5.98;46.77;101559.16;5055218;28;20246;-59
2022/11/19 08:09:57;;;;;;;15.33;10.60;;;3.20;60.00;;;6.04;46.05;101561.25;5054975;28;20195;-60
2022/11/19 08:12:24;;;;;;;10.40;8.30;;;3.30;60.20;;;6.10;46.26;101573.84;5054028;28;20213;-58
2022/11/19 08:14:51;;;;;;;14.27;9.57;;;3.30;59.80;;;6.15;46.58;101574.28;5098943;28;20196;-58
2022/11/19 08:20:06;;;;;;;12.83;9.67;;;3.40;59.50;;;6.29;46.25;101576.59;5070875;28;20199;-57
2022/11/19 08:22:35;;;;;;;9.07;7.17;;;3.50;59.50;;;6.37;46.29;101574.16;5055379;28;20855;-59
2022/11/19 08:25:03;;;;;;;9.23;6.97;;;3.50;59.10;;;6.39;46.17;101579.28;5075692;28;20659;-57
2022/11/19 08:27:30;;;;;;;7.33;6.27;;;3.60;59.00;;;6.39;45.05;101582.75;5065351;28;20206;-58
2022/11/19 08:29:57;;;;;;;7.77;6.20;;;3.50;58.70;;;6.41;45.79;101585.22;5074603;28;20732;-58
2022/11/19 08:32:24;;;;;;;9.77;7.17;;;3.60;59.10;;;6.44;45.82;101577.94;5073967;28;20220;-58
2022/11/19 08:34:51;;;;;;;7.17;6.30;;;3.60;59.10;;;6.48;45.13;101576.75;5074759;28;20194;-60
2022/11/19 08:37:20;;;;;;;7.83;7.03;;;3.60;59.30;;;6.55;44.96;101571.81;5058398;28;20218;-60
2022/11/19 08:39:47;;;;;;;6.93;5.80;;;3.70;58.80;;;6.62;44.81;101565.97;5055244;28;20356;-60
2022/11/19 08:45:00;;;;;;;8.03;7.07;;;3.80;58.50;;;6.71;44.92;101572.19;5054911;28;20199;-56
2022/11/19 08:47:26;;;;;;;8.10;6.50;;;3.90;58.40;;;6.70;44.65;101570.56;5061499;28;20561;-58
2022/11/19 08:49:53;;;;;;;7.83;6.57;;;3.90;58.00;;;6.71;44.30;101573.03;5074144;28;20280;-58
2022/11/19 08:52:22;;;;;;;8.73;6.90;;;3.90;58.10;;;6.74;44.26;101572.78;5056182;28;20222;-59
2022/11/19 08:54:49;;;;;;;8.57;7.60;;;3.90;57.70;;;6.74;44.61;101570.16;5054304;28;20194;-59
2022/11/19 08:57:16;;;;;;;8.57;7.13;;;4.00;58.00;;;6.81;44.50;101568.69;5074079;28;20221;-58
2022/11/19 08:59:43;;;;;;;7.70;6.13;;;4.00;58.00;;;6.92;44.17;101569.56;5094630;28;20260;-58
2022/11/19 09:02:10;;;;;;;9.57;7.30;;;4.10;58.00;;;7.00;44.54;101561.88;5094113;28;20214;-59
2022/11/19 09:04:37;;;;;;;8.60;6.80;;;4.20;57.80;;;7.07;43.61;101563.00;5093274;28;20188;-56
2022/11/19 09:07:04;;;;;;;7.87;6.60;;;4.30;57.50;;;7.10;43.49;101565.38;5069534;28;20238;-57
2022/11/19 09:09:33;;;;;;;8.70;7.00;;;4.30;56.80;;;7.09;43.37;101555.84;5054238;28;20204;-59
2022/11/19 09:11:59;;;;;;;8.03;6.87;;;4.20;56.70;;;7.11;44.12;101554.75;5051532;28;20218;-61
2022/11/19 09:14:27;;;;;;;9.50;6.97;;;4.30;56.90;;;7.19;43.74;101561.97;5063354;28;20184;-60
2022/11/19 09:16:55;;;;;;;7.40;6.60;;;4.30;56.80;;;7.28;43.27;101561.16;5094366;28;20197;-60
2022/11/19 09:19:22;;;;;;;19.27;12.67;;;4.40;56.70;;;7.33;43.47;101564.22;5084927;28;20207;-61
2022/11/19 09:21:49;;;;;;;9.50;7.13;;;4.40;56.30;;;7.38;43.04;101562.84;5066354;28;20231;-61
2022/11/19 09:24:16;;;;;;;10.00;7.20;;;4.50;56.50;;;7.46;43.05;101570.84;5062074;28;20201;-58
2022/11/19 09:26:45;;;;;;;8.33;7.07;;;4.60;56.50;;;7.56;42.64;101563.03;5074163;28;20188;-60
2022/11/19 09:29:18;;;;;;;8.00;7.20;;;4.70;56.30;;;7.65;42.73;101564.84;5073896;28;20659;-60
2022/11/19 09:31:45;;;;;;;26.80;17.73;;;4.70;56.00;;;7.80;42.63;101566.09;5073387;28;20263;-57
2022/11/19 09:34:12;;;;;;;10.53;8.27;;;4.80;56.10;;;8.07;42.01;101568.91;5068482;28;20686;-58
2022/11/19 09:36:39;;;;;;;7.57;6.70;;;4.90;55.90;;;8.41;41.68;101568.50;5067319;28;20202;-58
2022/11/19 09:39:06;;;;;;;8.52;7.63;;;5.10;55.60;;;9.02;40.44;101572.34;5051885;28;20551;-61
2022/11/19 09:41:54;;;;;;;7.80;7.00;;;5.20;55.50;;;9.07;40.00;101570.13;5052596;28;20218;-61
2022/11/19 09:44:43;;;;;;;7.47;5.93;;;5.50;54.80;;;9.23;39.87;101570.31;5052763;28;20335;-59
2022/11/19 09:47:29;;;;;;;7.23;6.37;;;5.70;53.90;;;9.31;39.56;101565.19;5052984;28;20262;-58
2022/11/19 09:50:10;;;;;;;6.50;5.90;;;5.90;53.20;;;9.41;39.00;101567.75;5052595;28;20235;-60
2022/11/19 09:52:44;;;;;;;7.70;6.10;;;6.00;53.00;;;9.50;38.37;101569.50;5063798;28;20227;-61
2022/11/19 09:55:19;;;;;;;7.67;6.03;;;6.10;51.70;;;9.58;38.52;101566.16;5072267;28;20250;-59
2022/11/19 09:57:54;;;;;;;6.60;5.90;;;6.30;51.90;;;9.62;38.56;101572.75;5087243;28;20195;-61
2022/11/19 10:00:25;;;;;;;6.93;5.40;;;6.30;51.30;;;9.73;37.72;101568.09;5093008;28;20648;-60
2022/11/19 10:02:54;;;;;;;5.97;5.37;;;6.40;50.80;;;10.07;37.43;101574.38;5093093;28;20211;-59
2022/11/19 10:05:34;;;;;;;5.93;5.33;;;6.40;51.00;;;10.34;36.77;101570.03;5093344;28;20297;-60
2022/11/19 10:08:25;;;;;;;8.50;6.00;;;6.60;50.90;;;10.40;36.92;101572.03;5059801;28;20275;-59
2022/11/19 10:11:08;;;;;;;6.00;5.40;;;6.70;50.70;;;10.35;36.85;101571.66;5051672;28;20244;-60
2022/11/19 10:13:52;;;;;;;5.77;5.17;;;6.90;50.00;;;10.24;36.77;101570.09;5053222;28;20252;-60
2022/11/19 10:16:37;;;;;;;5.97;4.87;;;7.00;50.00;;;10.11;36.86;101561.72;5063758;28;20250;-60
2022/11/19 10:19:19;;;;;;;4.67;4.17;;;7.00;49.20;;;9.98;37.24;101564.72;5067756;28;20212;-60
2022/11/19 10:21:59;;;;;;;5.97;5.37;;;6.90;49.20;;;9.88;37.21;101564.00;5052508;28;20209;-59
2022/11/19 10:24:40;;;;;;;6.43;4.97;;;6.90;49.10;;;9.77;37.00;101563.41;5051908;28;20178;-60
2022/11/19 10:27:18;;;;;;;14.17;9.73;;;6.80;48.60;;;9.67;37.76;101549.47;5053375;28;20228;-61
2022/11/19 10:29:55;;;;;;;33.50;14.90;;;6.70;49.20;;;9.60;37.79;101553.69;5053153;28;20178;-60
2022/11/19 10:32:31;;;;;;;6.73;5.30;;;6.70;49.20;;;9.51;37.35;101555.38;5053191;28;20267;-58
2022/11/19 10:35:07;;;;;;;6.53;5.10;;;6.70;49.50;;;9.47;37.66;101554.84;5052936;28;20708;-60
2022/11/19 10:37:46;;;;;;;7.70;5.80;;;6.60;49.70;;;9.45;38.02;101554.19;5072255;28;20209;-60
2022/11/19 10:40:21;;;;;;;6.40;5.57;;;6.60;49.80;;;9.47;37.87;101548.75;5072970;28;20194;-58
2022/11/19 10:42:54;;;;;;;5.93;5.33;;;6.60;49.90;;;9.43;37.91;101544.78;5072667;28;20213;-60
2022/11/19 10:45:25;;;;;;;5.70;5.10;;;6.50;49.60;;;9.38;37.68;101539.97;5072200;28;20252;-58
2022/11/19 10:48:03;;;;;;;5.80;4.80;;;6.50;50.00;;;9.38;38.56;101539.16;5072532;28;20193;-60
2022/11/19 10:50:36;;;;;;;7.47;5.50;;;6.50;50.40;;;9.35;37.96;101535.00;5066266;28;20196;-59
2022/11/19 10:53:12;;;;;;;6.40;4.97;;;6.40;50.00;;;9.35;38.44;101540.25;5050572;28;20313;-59
2022/11/19 10:55:44;;;;;;;5.70;5.03;;;6.40;50.40;;;9.32;38.28;101530.03;5052841;28;20174;-57
2022/11/19 10:58:24;;;;;;;5.23;4.60;;;6.40;50.60;;;9.29;38.81;101532.97;5088154;28;20200;-58
2022/11/19 11:00:56;;;;;;;5.30;4.70;;;6.40;50.80;;;9.25;38.37;101526.34;5094671;28;20254;-60